Overview Statistics Trail Chart Weather Telemetry Raw packets
 

This is the latest recevied weather packets stored in our database for station/object NW5W-12. If no packets are shown the sender has not sent any weather packets the latest 10 day(s).

<< 68 69 70 71 72 73 74 >>
Time Temp. Humidity Pressure Rain* Wind** Luminosity Snow
1788212939 22.22° C 54% 1019 hPa 0 mm - - -
1788212639 22.78° C 52% 1019.1 hPa 0 mm - - -
1788212340 23.33° C 51% 1019.2 hPa 0 mm - - -
1788212039 23.89° C 46% 1019.2 hPa 0 mm - - -
1788211740 24.44° C 39% 1019.3 hPa 0 mm - - -
1788211440 24.44° C 36% 1019.3 hPa 0 mm - - -
1788211140 24.44° C 35% 1019.4 hPa 0 mm - - -
1788210840 25° C 34% 1019.4 hPa 0 mm - - -
1788210539 25° C 35% 1019.4 hPa 0 mm - - -
1788210240 25.56° C 35% 1019.3 hPa 0 mm - - -
1788209940 25° C 35% 1019.4 hPa 0 mm - - -
1788209640 25° C 34% 1019.3 hPa 0 mm - - -
1788209340 25° C 35% 1019.5 hPa 0 mm - - -
1788209040 25° C 36% 1019.6 hPa 0 mm - - -
1788208740 25° C 35% 1019.7 hPa 0 mm - - -
1788208440 25° C 36% 1019.8 hPa 0 mm - - -
1788208140 24.44° C 37% 1019.9 hPa 0 mm - - -
1788207840 24.44° C 37% 1019.9 hPa 0 mm - - -
1788207540 24.44° C 36% 1019.9 hPa 0 mm - - -
1788207240 24.44° C 36% 1019.9 hPa 0 mm - - -
1788206940 24.44° C 36% 1020 hPa 0 mm - - -
1788206640 25° C 36% 1020.1 hPa 0 mm - - -
1788206340 25° C 37% 1020.2 hPa 0 mm - - -
1788206040 24.44° C 39% 1020.2 hPa 0 mm - - -
1788205739 25° C 37% 1020.3 hPa 0 mm - - -

* Rain since midnight (hover to see other rain measurements)
** Current wind speed in m/s (hover to see current wind gust speed)